createdAt,value
2023-02-11T00:01:48.697Z,99888.00
2023-02-11T00:04:17.191Z,99892.00
2023-02-11T00:06:45.018Z,99882.00
2023-02-11T00:09:12.868Z,99890.00
2023-02-11T00:11:40.596Z,99885.00
2023-02-11T00:14:08.918Z,99880.00
2023-02-11T00:16:38.092Z,99871.00
2023-02-11T00:19:06.557Z,99866.00
2023-02-11T00:21:35.302Z,99860.00
2023-02-11T00:24:03.106Z,99856.00
2023-02-11T00:26:32.577Z,99866.00
2023-02-11T00:29:00.944Z,99853.00
2023-02-11T00:31:29.433Z,99859.00
2023-02-11T00:33:58.530Z,99852.00
2023-02-11T00:36:28.267Z,99848.00
2023-02-11T00:38:57.810Z,99842.00
2023-02-11T00:41:26.252Z,99839.00
2023-02-11T00:43:56.121Z,99840.00
2023-02-11T00:46:24.632Z,99842.00
2023-02-11T00:48:55.055Z,99846.00
2023-02-11T00:51:24.122Z,99842.00
2023-02-11T00:53:52.225Z,99841.00
2023-02-11T00:56:19.932Z,99839.00
2023-02-11T00:58:47.642Z,99832.00
2023-02-11T01:01:16.988Z,99840.00
2023-02-11T01:03:45.050Z,99838.00
2023-02-11T01:06:13.776Z,99844.00
2023-02-11T01:08:42.757Z,99835.00
2023-02-11T01:11:14.798Z,99834.00
2023-02-11T01:13:43.278Z,99834.00
2023-02-11T01:16:12.192Z,99827.00
2023-02-11T01:18:41.885Z,99826.00
2023-02-11T01:21:09.513Z,99826.00
2023-02-11T01:23:40.720Z,99818.00
2023-02-11T01:26:09.723Z,99825.00
2023-02-11T01:28:37.441Z,99818.00
2023-02-11T01:31:05.668Z,99829.00
2023-02-11T01:33:33.672Z,99818.00
2023-02-11T01:36:02.881Z,99807.00
2023-02-11T01:38:31.578Z,99811.00
2023-02-11T01:41:02.209Z,99806.00
2023-02-11T01:43:34.427Z,99810.00
2023-02-11T01:46:14.561Z,99811.00
2023-02-11T01:48:45.522Z,99811.00
2023-02-11T01:51:17.641Z,99812.00
2023-02-11T01:54:04.025Z,99794.00
2023-02-11T01:56:50.194Z,99790.00
2023-02-11T01:59:23.774Z,99797.00
2023-02-11T02:01:57.577Z,99790.00
2023-02-11T02:04:31.516Z,99798.00
2023-02-11T02:07:04.458Z,99792.00
2023-02-11T02:09:38.782Z,99785.00
2023-02-11T02:12:06.887Z,99784.00
2023-02-11T02:14:39.191Z,99779.00
2023-02-11T02:17:06.970Z,99772.00
2023-02-11T02:20:12.465Z,99774.00
2023-02-11T02:23:06.959Z,99779.00
2023-02-11T02:25:57.140Z,99768.00
2023-02-11T02:28:46.541Z,99771.00
2023-02-11T02:31:29.816Z,99765.00
2023-02-11T02:34:03.149Z,99774.00
2023-02-11T02:36:38.098Z,99768.00
2023-02-11T02:39:09.835Z,99751.00
2023-02-11T02:41:40.063Z,99752.00
2023-02-11T02:44:09.170Z,99738.00
2023-02-11T02:46:37.885Z,99736.00
2023-02-11T02:49:14.467Z,99730.00
2023-02-11T02:52:08.108Z,99731.00
2023-02-11T02:54:59.145Z,99746.00
2023-02-11T02:57:33.342Z,99748.00
2023-02-11T03:00:13.429Z,99751.00
2023-02-11T03:02:50.065Z,99754.00
2023-02-11T03:05:24.084Z,99754.00
2023-02-11T03:07:57.968Z,99759.00
2023-02-11T03:10:29.089Z,99755.00
2023-02-11T03:12:58.450Z,99749.00
2023-02-11T03:15:29.293Z,99743.00
2023-02-11T03:18:00.721Z,99737.00
2023-02-11T03:20:32.934Z,99738.00
2023-02-11T03:23:07.284Z,99737.00
2023-02-11T03:25:39.049Z,99740.00
2023-02-11T03:28:14.539Z,99739.00
2023-02-11T03:30:48.280Z,99753.00
2023-02-11T03:33:24.581Z,99753.00
2023-02-11T03:35:57.214Z,99761.00
2023-02-11T03:38:30.610Z,99753.00
2023-02-11T03:41:00.000Z,99751.00
2023-02-11T03:43:31.949Z,99755.00
2023-02-11T03:46:01.050Z,99753.00
2023-02-11T03:48:32.614Z,99752.00
2023-02-11T03:51:06.345Z,99739.00
2023-02-11T03:53:34.305Z,99735.00
2023-02-11T03:56:05.295Z,99734.00
2023-02-11T03:58:32.994Z,99730.00
2023-02-11T04:01:02.426Z,99733.00
2023-02-11T04:03:31.888Z,99731.00
2023-02-11T04:06:01.090Z,99729.00
2023-02-11T04:08:28.987Z,99732.00
2023-02-11T04:10:56.740Z,99733.00
2023-02-11T04:13:24.472Z,99730.00
2023-02-11T04:15:52.521Z,99720.00
2023-02-11T04:18:20.467Z,99706.00
2023-02-11T04:20:48.497Z,99713.00
2023-02-11T04:23:17.638Z,99720.00
2023-02-11T04:25:45.390Z,99714.00
2023-02-11T04:28:13.244Z,99715.00
2023-02-11T04:30:41.099Z,99709.00
2023-02-11T04:33:08.832Z,99703.00
2023-02-11T04:35:36.551Z,99698.00
2023-02-11T04:38:04.357Z,99688.00
2023-02-11T04:40:33.421Z,99673.00
2023-02-11T04:43:01.119Z,99665.00
2023-02-11T04:45:28.866Z,99657.00
2023-02-11T04:47:56.580Z,99672.00
2023-02-11T04:50:24.309Z,99678.00
2023-02-11T04:52:52.041Z,99677.00
2023-02-11T04:55:20.085Z,99666.00
2023-02-11T04:57:49.139Z,99653.00
2023-02-11T05:00:17.779Z,99663.00
2023-02-11T05:02:45.532Z,99657.00
2023-02-11T05:05:13.261Z,99656.00
2023-02-11T05:07:41.162Z,99663.00
2023-02-11T05:10:09.201Z,99663.00
2023-02-11T05:12:36.918Z,99679.00
2023-02-11T05:15:07.010Z,99684.00
2023-02-11T05:17:34.744Z,99675.00
2023-02-11T05:20:02.441Z,99687.00
2023-02-11T05:22:30.143Z,99690.00
2023-02-11T05:24:57.915Z,99695.00
2023-02-11T05:27:25.741Z,99700.00
2023-02-11T05:29:53.421Z,99676.00
2023-02-11T05:32:22.511Z,99665.00
2023-02-11T05:34:50.286Z,99659.00
2023-02-11T05:37:18.103Z,99663.00
2023-02-11T05:39:45.849Z,99657.00
2023-02-11T05:42:14.217Z,99667.00
2023-02-11T05:44:41.933Z,99665.00
2023-02-11T05:47:09.676Z,99663.00
2023-02-11T05:49:38.711Z,99650.00
2023-02-11T05:52:06.699Z,99640.00
2023-02-11T05:54:34.561Z,99629.00
2023-02-11T05:57:02.318Z,99641.00
2023-02-11T05:59:30.054Z,99643.00
2023-02-11T06:01:57.759Z,99651.00
2023-02-11T06:04:25.547Z,99654.00
2023-02-11T06:06:54.626Z,99660.00
2023-02-11T06:09:22.477Z,99656.00
2023-02-11T06:11:50.195Z,99662.00
2023-02-11T06:14:17.980Z,99667.00
2023-02-11T06:16:45.820Z,99671.00
2023-02-11T06:19:13.802Z,99668.00
2023-02-11T06:21:44.150Z,99661.00
2023-02-11T06:24:13.622Z,99643.00
2023-02-11T06:26:41.396Z,99652.00
2023-02-11T06:29:09.312Z,99643.00
2023-02-11T06:31:39.043Z,99638.00
2023-02-11T06:34:07.176Z,99647.00
2023-02-11T06:36:35.155Z,99659.00
2023-02-11T06:39:03.240Z,99644.00
2023-02-11T06:41:32.409Z,99647.00
2023-02-11T06:44:00.262Z,99638.00
2023-02-11T06:46:27.983Z,99651.00
2023-02-11T06:48:55.893Z,99649.00
2023-02-11T06:51:23.664Z,99646.00
2023-02-11T06:53:51.379Z,99642.00
2023-02-11T06:56:20.915Z,99640.00
2023-02-11T06:58:54.665Z,99649.00
2023-02-11T07:01:23.756Z,99651.00
2023-02-11T07:03:52.515Z,99664.00
2023-02-11T07:06:22.578Z,99669.00
2023-02-11T07:08:50.432Z,99661.00
2023-02-11T07:11:20.918Z,99663.00
2023-02-11T07:13:50.079Z,99669.00
2023-02-11T07:16:20.234Z,99679.00
2023-02-11T07:18:49.425Z,99677.00
2023-02-11T07:21:19.658Z,99677.00
2023-02-11T07:23:48.478Z,99682.00
2023-02-11T07:26:17.970Z,99685.00
2023-02-11T07:28:46.559Z,99680.00
2023-02-11T07:31:17.807Z,99672.00
2023-02-11T07:33:46.793Z,99670.00
2023-02-11T07:36:16.315Z,99664.00
2023-02-11T07:38:44.363Z,99670.00
2023-02-11T07:41:15.066Z,99668.00
2023-02-11T07:43:43.478Z,99661.00
2023-02-11T07:46:14.655Z,99664.00
2023-02-11T07:48:44.183Z,99675.00
2023-02-11T07:51:15.301Z,99679.00
2023-02-11T07:53:43.093Z,99687.00
2023-02-11T07:56:12.006Z,99697.00
2023-02-11T07:58:42.097Z,99691.00
2023-02-11T08:01:11.456Z,99699.00
2023-02-11T08:03:40.065Z,99692.00
2023-02-11T08:06:11.489Z,99686.00
2023-02-11T08:08:39.256Z,99692.00
2023-02-11T08:11:08.795Z,99699.00
2023-02-11T08:13:36.645Z,99705.00
2023-02-11T08:16:06.966Z,99692.00
2023-02-11T08:18:35.726Z,99701.00
2023-02-11T08:21:06.584Z,99705.00
2023-02-11T08:23:37.323Z,99700.00
2023-02-11T08:26:12.387Z,99699.00
2023-02-11T08:28:41.645Z,99692.00
2023-02-11T08:31:11.782Z,99686.00
2023-02-11T08:33:41.186Z,99693.00
2023-02-11T08:36:10.454Z,99680.00
2023-02-11T08:38:39.684Z,99679.00
2023-02-11T08:41:07.919Z,99692.00
2023-02-11T08:43:36.199Z,99691.00
2023-02-11T08:46:04.975Z,99688.00
2023-02-11T08:48:32.691Z,99681.00
2023-02-11T08:51:00.678Z,99683.00
2023-02-11T08:53:28.410Z,99677.00
2023-02-11T08:55:57.466Z,99684.00
2023-02-11T08:58:25.199Z,99682.00
2023-02-11T09:00:53.406Z,99689.00
2023-02-11T09:03:21.420Z,99689.00
2023-02-11T09:05:53.114Z,99691.00
2023-02-11T09:08:21.943Z,99699.00
2023-02-11T09:10:50.165Z,99703.00
2023-02-11T09:13:19.600Z,99694.00
2023-02-11T09:15:47.565Z,99686.00
2023-02-11T09:18:15.505Z,99691.00
2023-02-11T09:20:43.284Z,99678.00
2023-02-11T09:23:11.254Z,99674.00
2023-02-11T09:25:40.306Z,99670.00
2023-02-11T09:28:08.422Z,99668.00
2023-02-11T09:30:38.660Z,99671.00
2023-02-11T09:33:06.444Z,99666.00
2023-02-11T09:35:34.952Z,99674.00
2023-02-11T09:38:02.778Z,99684.00
2023-02-11T09:40:30.529Z,99676.00
2023-02-11T09:43:04.313Z,99690.00
2023-02-11T09:45:33.042Z,99691.00
2023-02-11T09:48:06.582Z,99691.00
2023-02-11T09:50:37.318Z,99685.00
2023-02-11T09:53:11.792Z,99693.00
2023-02-11T09:55:43.360Z,99686.00
2023-02-11T09:58:15.078Z,99684.00
2023-02-11T10:00:47.978Z,99680.00
2023-02-11T10:03:48.396Z,99672.00
2023-02-11T10:06:39.581Z,99679.00
2023-02-11T10:09:22.167Z,99688.00
2023-02-11T10:11:56.779Z,99699.00
2023-02-11T10:14:40.236Z,99695.00
2023-02-11T10:17:18.068Z,99705.00
2023-02-11T10:20:04.137Z,99704.00
2023-02-11T10:22:37.753Z,99712.00
2023-02-11T10:25:19.470Z,99710.00
2023-02-11T10:27:47.265Z,99712.00
2023-02-11T10:30:23.042Z,99705.00
2023-02-11T10:32:55.665Z,99712.00
2023-02-11T10:35:27.219Z,99700.00
2023-02-11T10:37:56.943Z,99708.00
2023-02-11T10:40:27.049Z,99707.00
2023-02-11T10:42:57.231Z,99700.00
2023-02-11T10:45:31.494Z,99703.00
2023-02-11T10:47:59.649Z,99697.00
2023-02-11T10:50:30.372Z,99696.00
2023-02-11T10:53:14.617Z,99689.00
2023-02-11T10:55:51.578Z,99688.00
2023-02-11T10:58:27.521Z,99695.00
2023-02-11T11:00:57.968Z,99695.00
2023-02-11T11:03:28.073Z,99694.00
2023-02-11T11:05:58.814Z,99691.00
2023-02-11T11:08:42.262Z,99689.00
2023-02-11T11:11:11.614Z,99680.00
2023-02-11T11:13:40.924Z,99672.00
2023-02-11T11:16:19.576Z,99691.00
2023-02-11T11:18:48.878Z,99698.00
2023-02-11T11:21:20.302Z,99693.00
2023-02-11T11:23:52.427Z,99691.00
2023-02-11T11:26:20.730Z,99685.00
2023-02-11T11:28:58.252Z,99675.00
2023-02-11T11:31:30.809Z,99681.00
2023-02-11T11:34:00.860Z,99683.00
2023-02-11T11:36:36.919Z,99675.00
2023-02-11T11:39:23.444Z,99680.00
2023-02-11T11:41:56.920Z,99675.00
2023-02-11T11:44:27.958Z,99675.00
2023-02-11T11:47:16.697Z,99680.00
2023-02-11T11:49:49.849Z,99677.00
2023-02-11T11:52:24.440Z,99677.00
2023-02-11T11:55:00.162Z,99676.00
2023-02-11T11:57:30.705Z,99671.00
2023-02-11T11:59:59.196Z,99671.00
2023-02-11T12:02:57.475Z,99673.00
2023-02-11T12:05:28.885Z,99681.00
2023-02-11T12:08:09.438Z,99687.00
2023-02-11T12:10:51.450Z,99675.00
2023-02-11T12:13:29.717Z,99683.00
2023-02-11T12:16:07.758Z,99676.00
2023-02-11T12:18:48.611Z,99675.00
2023-02-11T12:21:30.890Z,99670.00
2023-02-11T12:24:16.279Z,99672.00
2023-02-11T12:26:50.699Z,99671.00
2023-02-11T12:29:28.858Z,99679.00
2023-02-11T12:32:08.858Z,99674.00
2023-02-11T12:34:49.128Z,99671.00
2023-02-11T12:37:29.700Z,99682.00
2023-02-11T12:40:04.401Z,99683.00
2023-02-11T12:43:03.602Z,99675.00
2023-02-11T12:45:50.575Z,99677.00
2023-02-11T12:48:35.406Z,99672.00
2023-02-11T12:51:11.035Z,99674.00
2023-02-11T12:53:52.181Z,99662.00
2023-02-11T12:56:25.208Z,99654.00
2023-02-11T12:58:56.651Z,99651.00
2023-02-11T13:01:28.776Z,99657.00
2023-02-11T13:04:01.126Z,99658.00
2023-02-11T13:06:32.015Z,99649.00
2023-02-11T13:09:03.327Z,99648.00
2023-02-11T13:11:38.608Z,99640.00
2023-02-11T13:14:16.210Z,99643.00
2023-02-11T13:16:46.678Z,99635.00
2023-02-11T13:19:22.503Z,99631.00
2023-02-11T13:22:13.660Z,99639.00
2023-02-11T13:24:45.367Z,99637.00
2023-02-11T13:27:26.042Z,99638.00
2023-02-11T13:30:21.479Z,99636.00
2023-02-11T13:33:21.036Z,99629.00
2023-02-11T13:36:20.196Z,99631.00
2023-02-11T13:39:02.197Z,99628.00
2023-02-11T13:41:33.413Z,99639.00
2023-02-11T13:44:07.610Z,99637.00
2023-02-11T13:46:53.996Z,99631.00
2023-02-11T13:49:24.458Z,99644.00
2023-02-11T13:51:53.827Z,99640.00
2023-02-11T13:54:27.189Z,99648.00
2023-02-11T13:57:26.339Z,99642.00
2023-02-11T13:59:55.687Z,99650.00
2023-02-11T14:02:49.798Z,99657.00
2023-02-11T14:05:43.175Z,99663.00
2023-02-11T14:08:40.538Z,99658.00
2023-02-11T14:11:14.397Z,99655.00
2023-02-11T14:14:13.865Z,99665.00
2023-02-11T14:17:14.093Z,99654.00
2023-02-11T14:19:45.154Z,99647.00
2023-02-11T14:22:16.609Z,99647.00
2023-02-11T14:24:51.118Z,99648.00
2023-02-11T14:27:26.635Z,99641.00
2023-02-11T14:30:07.861Z,99642.00
2023-02-11T14:32:48.246Z,99650.00
2023-02-11T14:35:29.103Z,99638.00
2023-02-11T14:38:06.125Z,99644.00
2023-02-11T14:40:40.971Z,99644.00
2023-02-11T14:43:19.813Z,99641.00
2023-02-11T14:45:51.950Z,99635.00
2023-02-11T14:48:21.616Z,99632.00
2023-02-11T14:51:08.121Z,99633.00
2023-02-11T14:53:37.287Z,99636.00
2023-02-11T14:56:18.197Z,99630.00
2023-02-11T14:58:48.213Z,99635.00
2023-02-11T15:01:32.122Z,99631.00
2023-02-11T15:04:01.375Z,99627.00
2023-02-11T15:06:33.443Z,99636.00
2023-02-11T15:09:05.083Z,99639.00
2023-02-11T15:11:45.694Z,99629.00
2023-02-11T15:14:20.244Z,99640.00
2023-02-11T15:16:48.472Z,99640.00
2023-02-11T15:19:24.157Z,99652.00
2023-02-11T15:21:54.676Z,99653.00
2023-02-11T15:24:26.202Z,99658.00
2023-02-11T15:26:58.238Z,99653.00
2023-02-11T15:29:26.915Z,99654.00
2023-02-11T15:32:13.373Z,99646.00
2023-02-11T15:34:41.467Z,99647.00
2023-02-11T15:37:14.517Z,99650.00
2023-02-11T15:39:43.358Z,99651.00
2023-02-11T15:42:18.780Z,99658.00
2023-02-11T15:44:50.568Z,99667.00
2023-02-11T15:47:23.909Z,99662.00
2023-02-11T15:49:51.908Z,99668.00
2023-02-11T15:52:26.991Z,99671.00
2023-02-11T15:54:57.283Z,99664.00
2023-02-11T15:57:25.054Z,99667.00
2023-02-11T15:59:55.320Z,99671.00
2023-02-11T16:02:29.412Z,99667.00
2023-02-11T16:04:58.822Z,99675.00
2023-02-11T16:07:43.233Z,99669.00
2023-02-11T16:10:22.769Z,99670.00
2023-02-11T16:13:03.045Z,99680.00
2023-02-11T16:15:43.440Z,99675.00
2023-02-11T16:18:47.119Z,99677.00
2023-02-11T16:21:19.509Z,99682.00
2023-02-11T16:23:54.526Z,99675.00
2023-02-11T16:26:26.077Z,99690.00
2023-02-11T16:28:54.922Z,99690.00
2023-02-11T16:31:22.820Z,99690.00
2023-02-11T16:33:51.160Z,99701.00
2023-02-11T16:36:18.940Z,99705.00
2023-02-11T16:38:46.748Z,99701.00
2023-02-11T16:41:15.970Z,99703.00
2023-02-11T16:43:43.731Z,99704.00
2023-02-11T16:46:15.198Z,99700.00
2023-02-11T16:48:43.082Z,99708.00
2023-02-11T16:51:12.940Z,99714.00
2023-02-11T16:53:40.817Z,99710.00
2023-02-11T16:56:16.710Z,99710.00
2023-02-11T16:58:44.918Z,99708.00
2023-02-11T17:01:14.177Z,99716.00
2023-02-11T17:03:43.774Z,99716.00
2023-02-11T17:06:12.609Z,99716.00
2023-02-11T17:08:41.412Z,99714.00
2023-02-11T17:11:09.178Z,99721.00
2023-02-11T17:13:39.536Z,99722.00
2023-02-11T17:16:11.131Z,99718.00
2023-02-11T17:18:39.151Z,99714.00
2023-02-11T17:21:07.823Z,99717.00
2023-02-11T17:23:35.598Z,99723.00
2023-02-11T17:26:03.311Z,99722.00
2023-02-11T17:28:32.421Z,99723.00
2023-02-11T17:31:01.970Z,99729.00
2023-02-11T17:33:29.760Z,99729.00
2023-02-11T17:35:57.474Z,99723.00
2023-02-11T17:38:25.201Z,99723.00
2023-02-11T17:40:59.136Z,99716.00
2023-02-11T17:43:27.060Z,99722.00
2023-02-11T17:45:54.989Z,99726.00
2023-02-11T17:48:24.595Z,99725.00
2023-02-11T17:50:52.472Z,99729.00
2023-02-11T17:53:20.167Z,99735.00
2023-02-11T17:55:47.896Z,99732.00
2023-02-11T17:58:15.957Z,99735.00
2023-02-11T18:00:44.046Z,99726.00
2023-02-11T18:03:11.975Z,99730.00
2023-02-11T18:05:41.076Z,99735.00
2023-02-11T18:08:09.138Z,99736.00
2023-02-11T18:10:37.000Z,99729.00
2023-02-11T18:13:04.685Z,99724.00
2023-02-11T18:15:34.358Z,99723.00
2023-02-11T18:18:04.232Z,99729.00
2023-02-11T18:20:32.157Z,99734.00
2023-02-11T18:23:01.221Z,99740.00
2023-02-11T18:25:29.974Z,99738.00
2023-02-11T18:27:57.745Z,99737.00
2023-02-11T18:30:25.847Z,99743.00
2023-02-11T18:32:55.237Z,99737.00
2023-02-11T18:35:23.376Z,99738.00
2023-02-11T18:37:52.283Z,99745.00
2023-02-11T18:40:21.729Z,99742.00
2023-02-11T18:42:49.456Z,99742.00
2023-02-11T18:45:17.169Z,99755.00
2023-02-11T18:47:44.864Z,99752.00
2023-02-11T18:50:15.629Z,99742.00
2023-02-11T18:52:43.825Z,99747.00
2023-02-11T18:55:11.544Z,99749.00
2023-02-11T18:57:40.589Z,99746.00
2023-02-11T19:00:10.102Z,99758.00
2023-02-11T19:02:37.931Z,99749.00
2023-02-11T19:05:06.415Z,99748.00
2023-02-11T19:07:34.126Z,99751.00
2023-02-11T19:10:01.860Z,99746.00
2023-02-11T19:12:29.529Z,99753.00
2023-02-11T19:15:00.499Z,99751.00
2023-02-11T19:17:28.611Z,99751.00
2023-02-11T19:19:56.812Z,99759.00
2023-02-11T19:22:24.562Z,99759.00
2023-02-11T19:24:52.271Z,99767.00
2023-02-11T19:27:19.988Z,99767.00
2023-02-11T19:29:47.901Z,99755.00
2023-02-11T19:32:17.151Z,99766.00
2023-02-11T19:34:44.849Z,99760.00
2023-02-11T19:37:13.870Z,99765.00
2023-02-11T19:39:42.295Z,99772.00
2023-02-11T19:42:12.462Z,99782.00
2023-02-11T19:44:40.314Z,99785.00
2023-02-11T19:47:08.159Z,99787.00
2023-02-11T19:49:37.383Z,99785.00
2023-02-11T19:52:05.499Z,99775.00
2023-02-11T19:54:33.215Z,99781.00
2023-02-11T19:57:00.955Z,99788.00
2023-02-11T19:59:28.693Z,99786.00
2023-02-11T20:01:57.630Z,99792.00
2023-02-11T20:04:25.747Z,99793.00
2023-02-11T20:06:55.023Z,99800.00
2023-02-11T20:09:22.819Z,99791.00
2023-02-11T20:11:51.047Z,99794.00
2023-02-11T20:14:19.248Z,99800.00
2023-02-11T20:16:49.736Z,99800.00
2023-02-11T20:19:22.144Z,99802.00
2023-02-11T20:21:53.746Z,99801.00
2023-02-11T20:24:23.749Z,99808.00
2023-02-11T20:26:55.537Z,99807.00
2023-02-11T20:29:24.491Z,99806.00
2023-02-11T20:31:52.506Z,99801.00
2023-02-11T20:34:21.716Z,99790.00
2023-02-11T20:36:52.065Z,99796.00
2023-02-11T20:39:22.165Z,99798.00
2023-02-11T20:41:52.414Z,99806.00
2023-02-11T20:44:21.781Z,99800.00
2023-02-11T20:46:50.499Z,99796.00
2023-02-11T20:49:21.611Z,99795.00
2023-02-11T20:51:51.302Z,99800.00
2023-02-11T20:54:26.349Z,99808.00
2023-02-11T20:56:56.909Z,99811.00
2023-02-11T20:59:25.103Z,99803.00
2023-02-11T21:01:55.381Z,99825.00
2023-02-11T21:04:25.864Z,99828.00
2023-02-11T21:06:56.289Z,99822.00
2023-02-11T21:09:27.013Z,99806.00
2023-02-11T21:11:56.283Z,99806.00
2023-02-11T21:14:25.568Z,99809.00
2023-02-11T21:16:53.595Z,99819.00
2023-02-11T21:19:21.715Z,99826.00
2023-02-11T21:21:49.613Z,99840.00
2023-02-11T21:24:17.371Z,99841.00
2023-02-11T21:26:45.144Z,99831.00
2023-02-11T21:29:14.286Z,99826.00
2023-02-11T21:31:42.213Z,99827.00
2023-02-11T21:34:12.182Z,99826.00
2023-02-11T21:36:39.992Z,99830.00
2023-02-11T21:39:08.812Z,99826.00
2023-02-11T21:41:36.576Z,99835.00
2023-02-11T21:44:04.307Z,99839.00
2023-02-11T21:46:33.724Z,99841.00
2023-02-11T21:49:01.582Z,99836.00
2023-02-11T21:51:29.630Z,99831.00
2023-02-11T21:53:59.126Z,99839.00
2023-02-11T21:56:28.171Z,99839.00
2023-02-11T21:58:58.363Z,99832.00
2023-02-11T22:01:28.392Z,99830.00
2023-02-11T22:03:58.024Z,99839.00
2023-02-11T22:06:27.895Z,99837.00
2023-02-11T22:08:56.717Z,99833.00
2023-02-11T22:11:24.840Z,99837.00
2023-02-11T22:13:54.782Z,99831.00
2023-02-11T22:16:23.051Z,99839.00
2023-02-11T22:18:51.531Z,99843.00
2023-02-11T22:21:23.101Z,99842.00
2023-02-11T22:23:51.927Z,99837.00
2023-02-11T22:26:21.988Z,99842.00
2023-02-11T22:28:50.652Z,99845.00
2023-02-11T22:31:20.060Z,99845.00
2023-02-11T22:33:48.213Z,99841.00
2023-02-11T22:36:18.950Z,99845.00
2023-02-11T22:38:49.118Z,99847.00
2023-02-11T22:41:17.542Z,99857.00
2023-02-11T22:43:45.752Z,99857.00
2023-02-11T22:46:15.607Z,99847.00
2023-02-11T22:48:44.015Z,99855.00
2023-02-11T22:51:14.588Z,99859.00
2023-02-11T22:53:43.649Z,99868.00
2023-02-11T22:56:15.837Z,99860.00
2023-02-11T22:58:44.119Z,99867.00
2023-02-11T23:01:12.724Z,99864.00
2023-02-11T23:03:41.178Z,99861.00
2023-02-11T23:06:09.941Z,99871.00
2023-02-11T23:08:39.276Z,99872.00
2023-02-11T23:11:08.569Z,99864.00
2023-02-11T23:13:39.405Z,99870.00
2023-02-11T23:16:12.098Z,99864.00
2023-02-11T23:18:41.626Z,99864.00
2023-02-11T23:21:12.674Z,99860.00
2023-02-11T23:23:41.205Z,99861.00
2023-02-11T23:26:11.719Z,99858.00
2023-02-11T23:28:41.346Z,99863.00
2023-02-11T23:31:17.664Z,99870.00
2023-02-11T23:33:46.014Z,99872.00
2023-02-11T23:36:14.450Z,99865.00
2023-02-11T23:38:42.677Z,99863.00
2023-02-11T23:41:10.860Z,99863.00
2023-02-11T23:43:38.880Z,99862.00
2023-02-11T23:46:09.058Z,99864.00
2023-02-11T23:48:37.877Z,99860.00
2023-02-11T23:51:06.472Z,99858.00
2023-02-11T23:53:34.416Z,99861.00
2023-02-11T23:56:02.442Z,99862.00
2023-02-11T23:58:30.625Z,99867.00
